createdAt,value
2022-12-23T13:25:50.281Z,97945.00
2022-12-23T13:30:56.856Z,97955.75
2022-12-23T13:36:14.927Z,97877.38
2022-12-23T13:41:24.189Z,97869.56
2022-12-23T13:46:35.938Z,97844.91
2022-12-23T13:51:42.674Z,97833.53
2022-12-23T13:56:49.690Z,97819.28
2022-12-23T14:01:53.337Z,97819.94
2022-12-23T14:06:57.175Z,97811.66
2022-12-23T14:12:12.651Z,97824.19
2022-12-23T14:17:20.953Z,97791.97
2022-12-23T14:22:36.839Z,97781.22
2022-12-23T14:27:49.309Z,97779.09
2022-12-23T14:32:53.942Z,97758.75
2022-12-23T14:38:24.794Z,97755.13
2022-12-23T14:43:34.169Z,97774.50
2022-12-23T14:49:38.358Z,97754.09
2022-12-23T14:54:39.208Z,97791.94
2022-12-23T14:59:46.791Z,97772.31
2022-12-23T15:04:52.208Z,97778.66
2022-12-23T15:10:01.079Z,97779.31
2022-12-23T15:15:07.819Z,97758.31
2022-12-23T15:20:15.191Z,97776.97
2022-12-23T15:25:22.766Z,97780.38
2022-12-23T15:30:27.934Z,97787.28
2022-12-23T15:35:32.645Z,97785.09
2022-12-23T15:40:37.817Z,97786.88
2022-12-23T15:45:43.310Z,97777.50
2022-12-23T15:50:46.258Z,97787.53
2022-12-23T15:55:50.208Z,97795.28
2022-12-23T16:00:55.828Z,97800.31
2022-12-23T16:06:07.918Z,97807.06
2022-12-23T16:11:16.108Z,97807.63
2022-12-23T16:16:27.883Z,97807.31
2022-12-23T16:21:33.245Z,97815.09
2022-12-23T16:26:41.190Z,97812.34
2022-12-23T16:31:52.144Z,97808.63
2022-12-23T16:36:58.569Z,97825.94
2022-12-23T16:42:01.306Z,97827.72
2022-12-23T16:47:08.358Z,97836.59
2022-12-23T16:52:14.183Z,97844.16
2022-12-23T16:57:16.909Z,97846.03
2022-12-23T17:02:24.413Z,97864.34
2022-12-23T17:07:27.685Z,97859.22
2022-12-23T17:12:30.416Z,97883.88
2022-12-23T17:17:39.438Z,97905.56
2022-12-23T17:22:43.937Z,97898.88
2022-12-23T17:27:46.591Z,97902.59
2022-12-23T17:32:52.530Z,97912.41
2022-12-23T17:37:55.457Z,97922.66
2022-12-23T17:42:58.184Z,97939.50
2022-12-23T17:48:02.233Z,97951.47
2022-12-23T17:53:04.955Z,97955.03
2022-12-23T17:58:07.677Z,97962.31
2022-12-23T18:03:22.429Z,97977.69
2022-12-23T18:08:25.794Z,97983.13
2022-12-23T18:13:28.557Z,97979.06
2022-12-23T18:18:43.473Z,97980.06
2022-12-23T18:23:48.825Z,97984.34
2022-12-23T18:28:53.918Z,97994.56
2022-12-23T18:33:59.534Z,98000.03
2022-12-23T18:39:02.206Z,97998.88
2022-12-23T18:44:05.141Z,98004.31
2022-12-23T18:49:09.192Z,98011.72
2022-12-23T18:54:14.417Z,98014.66
2022-12-23T18:59:21.372Z,98015.00
2022-12-23T19:04:31.350Z,98031.59
2022-12-23T19:09:34.053Z,98029.50
2022-12-23T19:14:36.704Z,98034.03
2022-12-23T19:19:40.803Z,98023.69
2022-12-23T19:25:03.876Z,98042.09
2022-12-23T19:30:07.857Z,98038.50
2022-12-23T19:35:13.460Z,98053.69
2022-12-23T19:40:16.809Z,98060.03
2022-12-23T19:45:19.654Z,98056.47
2022-12-23T19:50:23.787Z,98070.13
2022-12-23T19:55:26.444Z,98085.81
2022-12-23T20:00:29.223Z,98100.53
2022-12-23T20:05:33.278Z,98098.09
2022-12-23T20:10:35.977Z,98110.72
2022-12-23T20:15:38.751Z,98117.88
2022-12-23T20:20:45.803Z,98119.56
2022-12-23T20:25:48.541Z,98136.59
2022-12-23T20:30:59.970Z,98127.25
2022-12-23T20:36:04.255Z,98138.22
2022-12-23T20:41:07.029Z,98154.84
2022-12-23T20:46:12.035Z,98161.06
2022-12-23T20:51:18.051Z,98157.53
2022-12-23T20:56:22.019Z,98172.59
2022-12-23T21:01:27.327Z,98165.19
2022-12-23T21:06:32.281Z,98177.81
2022-12-23T21:11:37.710Z,98190.19
2022-12-23T21:16:41.224Z,98196.38
2022-12-23T21:21:45.804Z,98196.16
2022-12-23T21:26:56.478Z,98210.09
2022-12-23T21:32:00.455Z,98212.19
2022-12-23T21:37:04.719Z,98209.50
2022-12-23T21:42:07.455Z,98218.00
2022-12-23T21:47:10.177Z,98224.22
2022-12-23T21:52:14.371Z,98246.53
2022-12-23T21:57:17.036Z,98261.00
2022-12-23T22:02:19.738Z,98269.81
2022-12-23T22:07:23.901Z,98272.25
2022-12-23T22:12:26.598Z,98274.00
2022-12-23T22:17:29.203Z,98298.44
2022-12-23T22:22:33.180Z,98297.88
2022-12-23T22:27:35.841Z,98298.44
2022-12-23T22:32:42.392Z,98302.41
2022-12-23T22:37:46.744Z,98308.34
2022-12-23T22:42:49.366Z,98321.91
2022-12-23T22:47:52.036Z,98332.88
2022-12-23T22:52:56.408Z,98357.56
2022-12-23T22:57:59.040Z,98361.75
2022-12-23T23:03:01.768Z,98367.50
2022-12-23T23:08:06.256Z,98367.13
2022-12-23T23:13:08.984Z,98386.91
2022-12-23T23:18:11.626Z,98378.84
2022-12-23T23:23:15.768Z,98394.88
2022-12-23T23:28:18.699Z,98407.94
2022-12-23T23:33:21.410Z,98402.81
2022-12-23T23:38:26.172Z,98397.31
2022-12-23T23:43:28.826Z,98392.19
2022-12-23T23:48:31.466Z,98405.25
2022-12-23T23:53:35.444Z,98407.44
2022-12-23T23:58:38.241Z,98425.09
